Terminal Aerodrome Forecast
Issued by NWS

Home | Current Version | Previous Version | Text Only | Print | Product List | Glossary On
Versions: 1 2 3 4 5 6 7 8 9 10 11 12 13 14 15 16 17 18 19 20
000
FTUS44 KLZK 242300
TAFHRO
TAF
KHRO 242330Z 2500/2524 12007KT 5SM SHRA BR BKN014
     FM250300 18010KT 5SM BR VCSH OVC009 WS020/22050KT
     FM251300 23015G25KT P6SM SCT015
     FM252000 27010G20KT P6SM SKC=

USA.gov is the U.S. government's official web portal to all federal, state and local government web resources and services.